sensor_id;sensor_type;location;lat;lon;timestamp;temperature;humidity
21928;DHT22;11128;51.096;17.190;2023-04-25T00:03:07;9.90;1.00
21928;DHT22;11128;51.096;17.190;2023-04-25T00:08:09;10.00;99.90
21928;DHT22;11128;51.096;17.190;2023-04-25T00:13:11;10.00;99.90
21928;DHT22;11128;51.096;17.190;2023-04-25T00:18:12;10.00;99.90
21928;DHT22;11128;51.096;17.190;2023-04-25T00:23:17;10.00;99.90
21928;DHT22;11128;51.096;17.190;2023-04-25T00:28:21;9.90;99.90
21928;DHT22;11128;51.096;17.190;2023-04-25T00:33:22;9.90;99.90
21928;DHT22;11128;51.096;17.190;2023-04-25T00:38:23;9.90;99.90
21928;DHT22;11128;51.096;17.190;2023-04-25T00:43:28;9.90;99.90
21928;DHT22;11128;51.096;17.190;2023-04-25T00:48:31;9.80;99.90
21928;DHT22;11128;51.096;17.190;2023-04-25T00:53:32;9.70;99.90
21928;DHT22;11128;51.096;17.190;2023-04-25T00:58:34;9.80;99.90
21928;DHT22;11128;51.096;17.190;2023-04-25T01:03:38;9.70;99.90
21928;DHT22;11128;51.096;17.190;2023-04-25T01:08:41;9.70;99.90
21928;DHT22;11128;51.096;17.190;2023-04-25T01:13:43;9.70;99.90
21928;DHT22;11128;51.096;17.190;2023-04-25T01:18:44;9.70;99.90
21928;DHT22;11128;51.096;17.190;2023-04-25T01:23:46;9.60;99.90
21928;DHT22;11128;51.096;17.190;2023-04-25T01:28:48;9.60;99.90
21928;DHT22;11128;51.096;17.190;2023-04-25T01:33:50;9.60;99.90
21928;DHT22;11128;51.096;17.190;2023-04-25T01:38:51;9.50;99.90
21928;DHT22;11128;51.096;17.190;2023-04-25T01:43:53;9.50;74.00
21928;DHT22;11128;51.096;17.190;2023-04-25T01:48:54;9.40;99.90
21928;DHT22;11128;51.096;17.190;2023-04-25T01:53:56;9.40;59.00
21928;DHT22;11128;51.096;17.190;2023-04-25T01:58:58;9.30;1.00
21928;DHT22;11128;51.096;17.190;2023-04-25T02:04:00;9.20;99.90
21928;DHT22;11128;51.096;17.190;2023-04-25T02:09:01;9.20;1.00
21928;DHT22;11128;51.096;17.190;2023-04-25T02:14:02;9.20;1.00
21928;DHT22;11128;51.096;17.190;2023-04-25T02:19:04;9.20;1.00
21928;DHT22;11128;51.096;17.190;2023-04-25T02:24:06;9.20;53.70
21928;DHT22;11128;51.096;17.190;2023-04-25T02:29:08;8.80;99.90
21928;DHT22;11128;51.096;17.190;2023-04-25T02:34:10;9.10;92.30
21928;DHT22;11128;51.096;17.190;2023-04-25T02:39:11;8.80;99.90
21928;DHT22;11128;51.096;17.190;2023-04-25T02:44:12;8.90;16.10
21928;DHT22;11128;51.096;17.190;2023-04-25T02:49:13;9.00;1.00
21928;DHT22;11128;51.096;17.190;2023-04-25T02:54:15;8.90;29.60
21928;DHT22;11128;51.096;17.190;2023-04-25T02:59:17;8.90;99.90
21928;DHT22;11128;51.096;17.190;2023-04-25T03:04:18;8.90;99.90
21928;DHT22;11128;51.096;17.190;2023-04-25T03:09:20;8.90;99.90
21928;DHT22;11128;51.096;17.190;2023-04-25T03:14:21;8.90;99.90
21928;DHT22;11128;51.096;17.190;2023-04-25T03:19:22;8.80;99.90
21928;DHT22;11128;51.096;17.190;2023-04-25T03:24:23;8.80;99.90
21928;DHT22;11128;51.096;17.190;2023-04-25T03:29:25;8.70;99.90
21928;DHT22;11128;51.096;17.190;2023-04-25T03:34:27;8.60;99.90
21928;DHT22;11128;51.096;17.190;2023-04-25T03:39:28;8.60;99.90
21928;DHT22;11128;51.096;17.190;2023-04-25T03:44:30;8.60;99.90
21928;DHT22;11128;51.096;17.190;2023-04-25T03:49:32;8.50;1.00
21928;DHT22;11128;51.096;17.190;2023-04-25T03:54:33;8.50;1.00
21928;DHT22;11128;51.096;17.190;2023-04-25T03:59:35;8.30;1.00
21928;DHT22;11128;51.096;17.190;2023-04-25T04:04:36;8.40;1.00
21928;DHT22;11128;51.096;17.190;2023-04-25T04:09:38;8.80;99.90
21928;DHT22;11128;51.096;17.190;2023-04-25T04:14:39;8.40;99.90
21928;DHT22;11128;51.096;17.190;2023-04-25T04:19:41;8.50;1.00
21928;DHT22;11128;51.096;17.190;2023-04-25T04:24:42;8.50;1.00
21928;DHT22;11128;51.096;17.190;2023-04-25T04:29:45;8.60;1.00
21928;DHT22;11128;51.096;17.190;2023-04-25T04:34:46;8.60;99.90
21928;DHT22;11128;51.096;17.190;2023-04-25T04:39:48;8.70;99.90
21928;DHT22;11128;51.096;17.190;2023-04-25T04:44:49;8.70;99.90
21928;DHT22;11128;51.096;17.190;2023-04-25T04:49:51;8.80;99.90
21928;DHT22;11128;51.096;17.190;2023-04-25T04:54:52;8.80;99.90
21928;DHT22;11128;51.096;17.190;2023-04-25T04:59:53;8.90;99.90
21928;DHT22;11128;51.096;17.190;2023-04-25T05:04:56;8.90;99.90
21928;DHT22;11128;51.096;17.190;2023-04-25T05:09:57;8.90;74.00
21928;DHT22;11128;51.096;17.190;2023-04-25T05:14:58;8.90;1.00
21928;DHT22;11128;51.096;17.190;2023-04-25T05:19:59;9.10;1.00
21928;DHT22;11128;51.096;17.190;2023-04-25T05:25:01;9.20;1.00
21928;DHT22;11128;51.096;17.190;2023-04-25T05:30:03;9.20;1.00
21928;DHT22;11128;51.096;17.190;2023-04-25T05:35:06;9.30;1.00
21928;DHT22;11128;51.096;17.190;2023-04-25T05:40:08;9.50;1.00
21928;DHT22;11128;51.096;17.190;2023-04-25T05:45:10;9.50;1.00
21928;DHT22;11128;51.096;17.190;2023-04-25T05:50:11;9.60;1.00
21928;DHT22;11128;51.096;17.190;2023-04-25T05:55:12;9.60;1.00
21928;DHT22;11128;51.096;17.190;2023-04-25T06:00:17;9.60;1.00
21928;DHT22;11128;51.096;17.190;2023-04-25T06:05:20;9.60;1.00
21928;DHT22;11128;51.096;17.190;2023-04-25T06:10:21;9.60;1.00
21928;DHT22;11128;51.096;17.190;2023-04-25T06:15:23;9.80;1.00
21928;DHT22;11128;51.096;17.190;2023-04-25T06:20:24;9.80;99.90
21928;DHT22;11128;51.096;17.190;2023-04-25T06:25:26;9.80;99.90
21928;DHT22;11128;51.096;17.190;2023-04-25T06:30:27;9.90;99.90
21928;DHT22;11128;51.096;17.190;2023-04-25T06:35:28;10.00;99.90
21928;DHT22;11128;51.096;17.190;2023-04-25T06:40:29;10.10;99.90
21928;DHT22;11128;51.096;17.190;2023-04-25T06:45:30;10.30;99.90
21928;DHT22;11128;51.096;17.190;2023-04-25T06:50:33;10.60;99.90
21928;DHT22;11128;51.096;17.190;2023-04-25T06:55:34;10.60;99.90
21928;DHT22;11128;51.096;17.190;2023-04-25T07:00:35;10.80;99.90
21928;DHT22;11128;51.096;17.190;2023-04-25T07:05:37;10.80;99.90
21928;DHT22;11128;51.096;17.190;2023-04-25T07:10:38;11.00;99.90
21928;DHT22;11128;51.096;17.190;2023-04-25T07:15:39;11.20;85.10
21928;DHT22;11128;51.096;17.190;2023-04-25T07:20:40;11.50;40.10
21928;DHT22;11128;51.096;17.190;2023-04-25T07:25:42;11.60;1.00
21928;DHT22;11128;51.096;17.190;2023-04-25T07:30:43;11.80;1.00
21928;DHT22;11128;51.096;17.190;2023-04-25T07:35:44;12.00;1.00
21928;DHT22;11128;51.096;17.190;2023-04-25T07:40:47;12.20;1.00
21928;DHT22;11128;51.096;17.190;2023-04-25T07:45:48;12.30;1.00
21928;DHT22;11128;51.096;17.190;2023-04-25T07:50:49;12.50;1.00
21928;DHT22;11128;51.096;17.190;2023-04-25T07:55:51;12.60;1.00
21928;DHT22;11128;51.096;17.190;2023-04-25T08:00:52;12.80;1.00
21928;DHT22;11128;51.096;17.190;2023-04-25T08:05:53;12.80;1.00
21928;DHT22;11128;51.096;17.190;2023-04-25T08:10:55;12.90;1.00
21928;DHT22;11128;51.096;17.190;2023-04-25T08:15:56;13.10;1.00
21928;DHT22;11128;51.096;17.190;2023-04-25T08:20:58;13.30;1.00
21928;DHT22;11128;51.096;17.190;2023-04-25T08:25:59;13.80;1.00
21928;DHT22;11128;51.096;17.190;2023-04-25T08:31:00;13.90;1.00
21928;DHT22;11128;51.096;17.190;2023-04-25T08:36:02;13.80;1.00
21928;DHT22;11128;51.096;17.190;2023-04-25T08:41:05;13.60;1.00
21928;DHT22;11128;51.096;17.190;2023-04-25T08:46:08;13.10;1.00
21928;DHT22;11128;51.096;17.190;2023-04-25T08:51:10;12.70;1.00
21928;DHT22;11128;51.096;17.190;2023-04-25T08:56:16;12.90;1.00
21928;DHT22;11128;51.096;17.190;2023-04-25T09:01:22;12.80;1.00
21928;DHT22;11128;51.096;17.190;2023-04-25T09:06:23;12.80;1.00
21928;DHT22;11128;51.096;17.190;2023-04-25T09:11:25;12.90;1.00
21928;DHT22;11128;51.096;17.190;2023-04-25T09:16:26;12.70;1.00
21928;DHT22;11128;51.096;17.190;2023-04-25T09:21:28;12.50;1.00
21928;DHT22;11128;51.096;17.190;2023-04-25T09:26:32;12.60;1.00
21928;DHT22;11128;51.096;17.190;2023-04-25T09:31:33;13.10;1.00
21928;DHT22;11128;51.096;17.190;2023-04-25T09:36:35;13.40;1.00
21928;DHT22;11128;51.096;17.190;2023-04-25T09:41:41;13.80;1.00
21928;DHT22;11128;51.096;17.190;2023-04-25T09:46:42;13.80;1.00
21928;DHT22;11128;51.096;17.190;2023-04-25T09:51:54;13.90;1.00
21928;DHT22;11128;51.096;17.190;2023-04-25T09:56:57;13.80;1.00
21928;DHT22;11128;51.096;17.190;2023-04-25T10:02:02;13.60;1.00
21928;DHT22;11128;51.096;17.190;2023-04-25T10:07:08;13.60;1.00
21928;DHT22;11128;51.096;17.190;2023-04-25T10:12:10;13.90;1.00
21928;DHT22;11128;51.096;17.190;2023-04-25T10:17:12;14.40;1.00
21928;DHT22;11128;51.096;17.190;2023-04-25T10:22:23;14.20;1.00
21928;DHT22;11128;51.096;17.190;2023-04-25T10:27:27;14.60;1.00
21928;DHT22;11128;51.096;17.190;2023-04-25T10:32:30;15.10;1.00
21928;DHT22;11128;51.096;17.190;2023-04-25T10:37:33;15.10;1.00
21928;DHT22;11128;51.096;17.190;2023-04-25T10:42:34;14.80;1.00
21928;DHT22;11128;51.096;17.190;2023-04-25T10:47:36;14.70;1.00
21928;DHT22;11128;51.096;17.190;2023-04-25T10:52:39;14.60;1.00
21928;DHT22;11128;51.096;17.190;2023-04-25T10:57:45;14.40;1.00
21928;DHT22;11128;51.096;17.190;2023-04-25T11:02:59;14.40;1.00
21928;DHT22;11128;51.096;17.190;2023-04-25T11:08:01;14.50;1.00
21928;DHT22;11128;51.096;17.190;2023-04-25T11:13:04;14.90;1.00
21928;DHT22;11128;51.096;17.190;2023-04-25T11:18:06;15.50;1.00
21928;DHT22;11128;51.096;17.190;2023-04-25T11:23:07;16.30;1.00
21928;DHT22;11128;51.096;17.190;2023-04-25T11:28:09;16.40;1.00
21928;DHT22;11128;51.096;17.190;2023-04-25T11:33:11;16.30;1.00
21928;DHT22;11128;51.096;17.190;2023-04-25T11:38:12;15.80;1.00
21928;DHT22;11128;51.096;17.190;2023-04-25T11:43:13;15.50;1.00
21928;DHT22;11128;51.096;17.190;2023-04-25T11:48:15;15.20;1.00
21928;DHT22;11128;51.096;17.190;2023-04-25T11:53:17;14.70;1.00
21928;DHT22;11128;51.096;17.190;2023-04-25T11:58:19;14.60;1.00
21928;DHT22;11128;51.096;17.190;2023-04-25T12:03:20;14.30;1.00
21928;DHT22;11128;51.096;17.190;2023-04-25T12:08:24;14.40;1.00
21928;DHT22;11128;51.096;17.190;2023-04-25T12:13:26;14.80;1.00
21928;DHT22;11128;51.096;17.190;2023-04-25T12:18:29;15.00;1.00
21928;DHT22;11128;51.096;17.190;2023-04-25T12:23:31;14.90;1.00
21928;DHT22;11128;51.096;17.190;2023-04-25T12:28:32;14.90;1.00
21928;DHT22;11128;51.096;17.190;2023-04-25T12:33:36;14.80;1.00
21928;DHT22;11128;51.096;17.190;2023-04-25T12:38:39;14.60;1.00
21928;DHT22;11128;51.096;17.190;2023-04-25T12:43:40;14.60;1.00
21928;DHT22;11128;51.096;17.190;2023-04-25T12:48:42;14.40;1.00
21928;DHT22;11128;51.096;17.190;2023-04-25T12:53:43;14.20;1.00
21928;DHT22;11128;51.096;17.190;2023-04-25T12:58:45;14.30;1.00
21928;DHT22;11128;51.096;17.190;2023-04-25T13:03:46;14.60;1.00
21928;DHT22;11128;51.096;17.190;2023-04-25T13:08:49;14.50;1.00
21928;DHT22;11128;51.096;17.190;2023-04-25T13:13:50;14.50;1.00
21928;DHT22;11128;51.096;17.190;2023-04-25T13:18:51;14.30;1.00
21928;DHT22;11128;51.096;17.190;2023-04-25T13:23:53;14.20;1.00
21928;DHT22;11128;51.096;17.190;2023-04-25T13:28:54;14.30;1.00
21928;DHT22;11128;51.096;17.190;2023-04-25T13:33:55;14.40;1.00
21928;DHT22;11128;51.096;17.190;2023-04-25T13:38:56;14.90;1.00
21928;DHT22;11128;51.096;17.190;2023-04-25T13:43:57;15.70;1.00
21928;DHT22;11128;51.096;17.190;2023-04-25T13:48:59;15.30;1.00
21928;DHT22;11128;51.096;17.190;2023-04-25T13:54:00;14.90;1.00
21928;DHT22;11128;51.096;17.190;2023-04-25T13:59:01;14.50;1.00
21928;DHT22;11128;51.096;17.190;2023-04-25T14:04:03;14.50;1.00
21928;DHT22;11128;51.096;17.190;2023-04-25T14:09:08;14.30;1.00
21928;DHT22;11128;51.096;17.190;2023-04-25T14:14:11;14.20;1.00
21928;DHT22;11128;51.096;17.190;2023-04-25T14:19:13;14.40;1.00
21928;DHT22;11128;51.096;17.190;2023-04-25T14:24:14;15.20;1.00
21928;DHT22;11128;51.096;17.190;2023-04-25T14:29:15;16.10;1.00
21928;DHT22;11128;51.096;17.190;2023-04-25T14:34:17;16.90;1.00
21928;DHT22;11128;51.096;17.190;2023-04-25T14:39:18;16.40;1.00
21928;DHT22;11128;51.096;17.190;2023-04-25T14:44:20;16.10;1.00
21928;DHT22;11128;51.096;17.190;2023-04-25T14:49:21;16.60;1.00
21928;DHT22;11128;51.096;17.190;2023-04-25T14:54:22;16.60;1.00
21928;DHT22;11128;51.096;17.190;2023-04-25T14:59:24;16.00;1.00
21928;DHT22;11128;51.096;17.190;2023-04-25T15:04:25;15.10;1.00
21928;DHT22;11128;51.096;17.190;2023-04-25T15:09:26;14.30;1.00
21928;DHT22;11128;51.096;17.190;2023-04-25T15:14:28;13.80;1.00
21928;DHT22;11128;51.096;17.190;2023-04-25T15:19:29;13.50;1.00
21928;DHT22;11128;51.096;17.190;2023-04-25T15:24:31;13.30;1.00
21928;DHT22;11128;51.096;17.190;2023-04-25T15:29:32;13.10;1.00
21928;DHT22;11128;51.096;17.190;2023-04-25T15:34:33;12.90;1.00
21928;DHT22;11128;51.096;17.190;2023-04-25T15:39:34;12.70;1.00
21928;DHT22;11128;51.096;17.190;2023-04-25T15:44:35;12.50;1.00
21928;DHT22;11128;51.096;17.190;2023-04-25T15:49:36;12.50;1.00
21928;DHT22;11128;51.096;17.190;2023-04-25T15:54:38;12.50;1.00
21928;DHT22;11128;51.096;17.190;2023-04-25T15:59:39;12.50;1.00
21928;DHT22;11128;51.096;17.190;2023-04-25T16:04:40;12.30;1.00
21928;DHT22;11128;51.096;17.190;2023-04-25T16:09:42;12.30;1.00
21928;DHT22;11128;51.096;17.190;2023-04-25T16:14:44;12.20;1.00
21928;DHT22;11128;51.096;17.190;2023-04-25T16:19:46;12.10;1.00
21928;DHT22;11128;51.096;17.190;2023-04-25T16:24:47;11.90;1.00
21928;DHT22;11128;51.096;17.190;2023-04-25T16:29:48;11.80;1.00
21928;DHT22;11128;51.096;17.190;2023-04-25T16:34:51;11.80;1.00
21928;DHT22;11128;51.096;17.190;2023-04-25T16:39:52;11.80;1.00
21928;DHT22;11128;51.096;17.190;2023-04-25T16:44:54;11.70;1.00
21928;DHT22;11128;51.096;17.190;2023-04-25T16:49:55;11.60;1.00
21928;DHT22;11128;51.096;17.190;2023-04-25T16:54:57;11.60;1.00
21928;DHT22;11128;51.096;17.190;2023-04-25T16:59:58;11.50;1.00
21928;DHT22;11128;51.096;17.190;2023-04-25T17:05:00;11.40;1.00
21928;DHT22;11128;51.096;17.190;2023-04-25T17:10:01;11.40;1.00
21928;DHT22;11128;51.096;17.190;2023-04-25T17:15:02;11.30;1.00
21928;DHT22;11128;51.096;17.190;2023-04-25T17:20:04;10.90;99.90
21928;DHT22;11128;51.096;17.190;2023-04-25T17:25:08;10.60;99.90
21928;DHT22;11128;51.096;17.190;2023-04-25T17:30:10;10.30;1.00
21928;DHT22;11128;51.096;17.190;2023-04-25T17:35:12;10.10;1.00
21928;DHT22;11128;51.096;17.190;2023-04-25T17:40:13;9.90;1.00
21928;DHT22;11128;51.096;17.190;2023-04-25T17:45:17;9.70;1.00
21928;DHT22;11128;51.096;17.190;2023-04-25T17:50:18;9.60;1.00
21928;DHT22;11128;51.096;17.190;2023-04-25T17:55:20;9.50;1.00
21928;DHT22;11128;51.096;17.190;2023-04-25T18:00:21;9.50;99.90
21928;DHT22;11128;51.096;17.190;2023-04-25T18:05:23;9.50;99.90
21928;DHT22;11128;51.096;17.190;2023-04-25T18:10:25;9.40;99.90
21928;DHT22;11128;51.096;17.190;2023-04-25T18:15:27;9.40;1.00
21928;DHT22;11128;51.096;17.190;2023-04-25T18:20:30;9.50;1.00
21928;DHT22;11128;51.096;17.190;2023-04-25T18:25:31;9.40;1.00
21928;DHT22;11128;51.096;17.190;2023-04-25T18:30:34;9.40;1.00
21928;DHT22;11128;51.096;17.190;2023-04-25T18:35:35;9.40;1.00
21928;DHT22;11128;51.096;17.190;2023-04-25T18:40:36;9.40;1.00
21928;DHT22;11128;51.096;17.190;2023-04-25T18:45:38;9.40;1.00
21928;DHT22;11128;51.096;17.190;2023-04-25T18:50:40;9.40;1.00
21928;DHT22;11128;51.096;17.190;2023-04-25T18:55:43;9.40;1.00
21928;DHT22;11128;51.096;17.190;2023-04-25T19:00:44;9.40;1.00
21928;DHT22;11128;51.096;17.190;2023-04-25T19:05:48;9.40;1.00
21928;DHT22;11128;51.096;17.190;2023-04-25T19:10:50;9.40;1.00
21928;DHT22;11128;51.096;17.190;2023-04-25T19:15:53;9.40;1.00
21928;DHT22;11128;51.096;17.190;2023-04-25T19:20:54;9.40;1.00
21928;DHT22;11128;51.096;17.190;2023-04-25T19:25:56;9.40;1.00
21928;DHT22;11128;51.096;17.190;2023-04-25T19:30:57;9.30;1.00
21928;DHT22;11128;51.096;17.190;2023-04-25T19:35:59;9.30;1.00
21928;DHT22;11128;51.096;17.190;2023-04-25T19:41:00;9.20;1.00
21928;DHT22;11128;51.096;17.190;2023-04-25T19:46:02;9.00;1.00
21928;DHT22;11128;51.096;17.190;2023-04-25T19:51:03;9.00;1.00
21928;DHT22;11128;51.096;17.190;2023-04-25T19:56:04;8.80;1.00
21928;DHT22;11128;51.096;17.190;2023-04-25T20:01:05;8.60;1.00
21928;DHT22;11128;51.096;17.190;2023-04-25T20:06:07;8.50;1.00
21928;DHT22;11128;51.096;17.190;2023-04-25T20:11:19;8.30;1.00
21928;DHT22;11128;51.096;17.190;2023-04-25T20:16:23;8.20;99.90
21928;DHT22;11128;51.096;17.190;2023-04-25T20:21:24;8.10;99.90
21928;DHT22;11128;51.096;17.190;2023-04-25T20:26:28;8.00;99.90
21928;DHT22;11128;51.096;17.190;2023-04-25T20:31:29;8.00;99.90
21928;DHT22;11128;51.096;17.190;2023-04-25T20:36:31;7.90;99.90
21928;DHT22;11128;51.096;17.190;2023-04-25T20:41:33;8.20;84.50
21928;DHT22;11128;51.096;17.190;2023-04-25T20:46:34;7.80;91.90
21928;DHT22;11128;51.096;17.190;2023-04-25T20:51:37;7.70;93.10
21928;DHT22;11128;51.096;17.190;2023-04-25T20:56:38;7.60;41.30
21928;DHT22;11128;51.096;17.190;2023-04-25T21:01:40;7.50;34.30
21928;DHT22;11128;51.096;17.190;2023-04-25T21:06:41;7.40;76.10
21928;DHT22;11128;51.096;17.190;2023-04-25T21:11:42;7.50;51.00
21928;DHT22;11128;51.096;17.190;2023-04-25T21:16:44;7.20;94.30
21928;DHT22;11128;51.096;17.190;2023-04-25T21:21:45;7.10;99.90
21928;DHT22;11128;51.096;17.190;2023-04-25T21:26:47;7.00;99.90
21928;DHT22;11128;51.096;17.190;2023-04-25T21:31:48;7.00;95.50
21928;DHT22;11128;51.096;17.190;2023-04-25T21:36:49;6.90;99.90
21928;DHT22;11128;51.096;17.190;2023-04-25T21:41:51;6.90;99.90
21928;DHT22;11128;51.096;17.190;2023-04-25T21:46:52;6.80;99.90
21928;DHT22;11128;51.096;17.190;2023-04-25T21:51:56;6.80;99.90
21928;DHT22;11128;51.096;17.190;2023-04-25T21:56:57;6.60;99.90
21928;DHT22;11128;51.096;17.190;2023-04-25T22:01:59;6.70;99.90
21928;DHT22;11128;51.096;17.190;2023-04-25T22:07:00;6.50;99.90
21928;DHT22;11128;51.096;17.190;2023-04-25T22:12:02;6.60;99.90
21928;DHT22;11128;51.096;17.190;2023-04-25T22:17:03;6.60;99.90
21928;DHT22;11128;51.096;17.190;2023-04-25T22:22:05;6.50;99.90
21928;DHT22;11128;51.096;17.190;2023-04-25T22:27:06;6.40;99.90
21928;DHT22;11128;51.096;17.190;2023-04-25T22:32:07;6.30;99.90
21928;DHT22;11128;51.096;17.190;2023-04-25T22:37:09;7.10;99.90
21928;DHT22;11128;51.096;17.190;2023-04-25T22:42:10;6.10;99.90
21928;DHT22;11128;51.096;17.190;2023-04-25T22:47:12;6.10;99.90
21928;DHT22;11128;51.096;17.190;2023-04-25T22:52:13;6.00;99.90
21928;DHT22;11128;51.096;17.190;2023-04-25T22:57:14;5.90;99.90
21928;DHT22;11128;51.096;17.190;2023-04-25T23:02:16;5.90;99.90
21928;DHT22;11128;51.096;17.190;2023-04-25T23:07:19;5.90;99.90
21928;DHT22;11128;51.096;17.190;2023-04-25T23:12:20;5.80;99.90
21928;DHT22;11128;51.096;17.190;2023-04-25T23:17:21;5.70;99.90
21928;DHT22;11128;51.096;17.190;2023-04-25T23:22:22;5.60;99.90
21928;DHT22;11128;51.096;17.190;2023-04-25T23:27:24;5.90;99.90
21928;DHT22;11128;51.096;17.190;2023-04-25T23:32:26;5.60;99.90
21928;DHT22;11128;51.096;17.190;2023-04-25T23:37:27;5.90;99.90
21928;DHT22;11128;51.096;17.190;2023-04-25T23:42:30;5.30;1.00
21928;DHT22;11128;51.096;17.190;2023-04-25T23:47:32;5.20;1.00
21928;DHT22;11128;51.096;17.190;2023-04-25T23:52:33;5.20;1.00
21928;DHT22;11128;51.096;17.190;2023-04-25T23:57:35;5.60;1.00
